createdAt,value
2018-09-02T00:02:10.251Z,15.70
2018-09-02T00:04:38.139Z,15.70
2018-09-02T00:07:05.884Z,15.80
2018-09-02T00:09:33.579Z,15.80
2018-09-02T00:12:01.371Z,15.80
2018-09-02T00:14:29.195Z,15.80
2018-09-02T00:16:56.891Z,15.80
2018-09-02T00:19:24.724Z,15.80
2018-09-02T00:21:53.578Z,15.70
2018-09-02T00:24:21.260Z,15.70
2018-09-02T00:26:48.943Z,15.70
2018-09-02T00:29:16.738Z,15.70
2018-09-02T00:31:44.650Z,15.70
2018-09-02T00:34:12.973Z,15.70
2018-09-02T00:36:40.717Z,15.80
2018-09-02T00:39:09.575Z,15.80
2018-09-02T00:41:38.385Z,15.70
2018-09-02T00:44:06.791Z,15.70
2018-09-02T00:46:34.560Z,15.70
2018-09-02T00:49:02.829Z,15.70
2018-09-02T00:51:30.503Z,15.70
2018-09-02T00:53:58.234Z,15.70
2018-09-02T00:56:26.121Z,15.70
2018-09-02T00:58:53.814Z,15.80
2018-09-02T01:01:21.558Z,15.70
2018-09-02T01:03:49.247Z,15.70
2018-09-02T01:06:17.152Z,15.70
2018-09-02T01:08:44.844Z,15.70
2018-09-02T01:11:12.736Z,15.70
2018-09-02T01:13:40.806Z,15.70
2018-09-02T01:16:08.519Z,15.70
2018-09-02T01:18:36.551Z,15.70
2018-09-02T01:21:04.258Z,15.70
2018-09-02T01:23:31.970Z,15.70
2018-09-02T01:25:59.738Z,15.70
2018-09-02T01:28:27.537Z,15.70
2018-09-02T01:30:55.267Z,15.70
2018-09-02T01:33:23.068Z,15.70
2018-09-02T01:35:50.903Z,15.80
2018-09-02T01:38:18.787Z,15.80
2018-09-02T01:40:46.779Z,15.70
2018-09-02T01:43:21.535Z,15.60
2018-09-02T01:45:49.396Z,15.70
2018-09-02T01:48:17.133Z,15.60
2018-09-02T01:50:44.751Z,15.60
2018-09-02T01:53:12.455Z,15.50
2018-09-02T01:55:40.140Z,15.50
2018-09-02T01:58:07.783Z,15.50
2018-09-02T02:00:35.474Z,15.50
2018-09-02T02:03:03.131Z,15.50
2018-09-02T02:05:30.964Z,15.50
2018-09-02T02:07:58.587Z,15.50
2018-09-02T02:10:26.551Z,15.50
2018-09-02T02:12:54.173Z,15.50
2018-09-02T02:15:21.834Z,15.60
2018-09-02T02:17:50.130Z,15.60
2018-09-02T02:20:17.795Z,15.60
2018-09-02T02:22:45.468Z,15.70
2018-09-02T02:25:13.212Z,15.80
2018-09-02T02:27:41.038Z,15.80
2018-09-02T02:30:09.057Z,15.90
2018-09-02T02:32:36.832Z,15.90
2018-09-02T02:35:04.584Z,15.90
2018-09-02T02:37:32.251Z,15.90
2018-09-02T02:39:59.893Z,16.00
2018-09-02T02:42:27.738Z,16.00
2018-09-02T02:44:55.567Z,16.00
2018-09-02T02:47:23.776Z,16.00
2018-09-02T02:49:51.425Z,16.00
2018-09-02T02:52:19.063Z,15.90
2018-09-02T02:54:46.688Z,15.90
2018-09-02T02:57:14.388Z,15.90
2018-09-02T02:59:42.051Z,15.90
2018-09-02T03:02:09.904Z,15.90
2018-09-02T03:04:40.203Z,16.00
2018-09-02T03:07:08.275Z,15.90
2018-09-02T03:09:35.963Z,15.90
2018-09-02T03:12:03.635Z,15.80
2018-09-02T03:14:31.283Z,15.80
2018-09-02T03:16:58.936Z,15.70
2018-09-02T03:19:26.855Z,15.70
2018-09-02T03:21:54.510Z,15.70
2018-09-02T03:24:22.394Z,15.70
2018-09-02T03:26:50.008Z,15.70
2018-09-02T03:29:17.844Z,15.70
2018-09-02T03:31:45.492Z,15.70
2018-09-02T03:34:13.174Z,15.70
2018-09-02T03:36:40.926Z,15.70
2018-09-02T03:39:08.715Z,15.60
2018-09-02T03:41:36.375Z,15.60
2018-09-02T03:44:04.116Z,15.50
2018-09-02T03:46:31.751Z,15.40
2018-09-02T03:48:59.449Z,15.30
2018-09-02T03:51:27.107Z,15.20
2018-09-02T03:53:55.211Z,15.10
2018-09-02T03:56:22.839Z,15.00
2018-09-02T03:58:50.885Z,14.90
2018-09-02T04:01:18.581Z,14.80
2018-09-02T04:03:46.284Z,14.80
2018-09-02T04:06:13.923Z,14.70
2018-09-02T04:08:41.587Z,14.60
2018-09-02T04:11:09.300Z,14.50
2018-09-02T04:13:36.930Z,14.50
2018-09-02T04:16:04.634Z,14.50
2018-09-02T04:18:32.267Z,14.50
2018-09-02T04:20:59.922Z,14.40
2018-09-02T04:23:27.592Z,14.40
2018-09-02T04:25:55.255Z,14.40
2018-09-02T04:28:23.122Z,14.40
2018-09-02T04:30:50.804Z,14.40
2018-09-02T04:33:18.485Z,14.30
2018-09-02T04:35:46.262Z,14.30
2018-09-02T04:38:13.874Z,14.30
2018-09-02T04:40:41.788Z,14.30
2018-09-02T04:43:09.891Z,14.30
2018-09-02T04:45:37.840Z,14.30
2018-09-02T04:48:05.480Z,14.30
2018-09-02T04:50:33.195Z,14.30
2018-09-02T04:53:00.813Z,14.30
2018-09-02T04:55:28.478Z,14.30
2018-09-02T04:57:56.137Z,14.30
2018-09-02T05:00:23.918Z,14.30
2018-09-02T05:02:51.475Z,14.30
2018-09-02T05:05:19.109Z,14.30
2018-09-02T05:07:46.848Z,14.30
2018-09-02T05:10:14.482Z,14.30
2018-09-02T05:12:42.146Z,14.30
2018-09-02T05:15:09.819Z,14.30
2018-09-02T05:17:37.838Z,14.30
2018-09-02T05:20:06.028Z,14.20
2018-09-02T05:22:33.715Z,14.20
2018-09-02T05:25:01.454Z,14.20
2018-09-02T05:27:29.199Z,14.20
2018-09-02T05:29:57.072Z,14.10
2018-09-02T05:32:24.730Z,14.00
2018-09-02T05:34:52.418Z,14.00
2018-09-02T05:37:20.063Z,13.90
2018-09-02T05:39:47.708Z,13.90
2018-09-02T05:42:15.432Z,13.90
2018-09-02T05:44:43.272Z,14.00
2018-09-02T05:47:10.915Z,14.00
2018-09-02T05:49:39.192Z,14.00
2018-09-02T05:52:06.891Z,14.00
2018-09-02T05:54:34.551Z,14.00
2018-09-02T05:57:02.315Z,14.00
2018-09-02T05:59:29.975Z,14.00
2018-09-02T06:01:57.661Z,14.00
2018-09-02T06:04:25.545Z,14.00
2018-09-02T06:06:53.192Z,14.00
2018-09-02T06:09:22.296Z,14.00
2018-09-02T06:11:50.011Z,14.00
2018-09-02T06:14:17.764Z,14.00
2018-09-02T06:16:45.616Z,14.00
2018-09-02T06:19:13.437Z,13.90
2018-09-02T06:21:41.063Z,13.90
2018-09-02T06:24:09.056Z,13.90
2018-09-02T06:26:36.813Z,13.80
2018-09-02T06:29:04.929Z,13.80
2018-09-02T06:31:32.606Z,13.80
2018-09-02T06:34:00.228Z,13.90
2018-09-02T06:36:27.881Z,13.90
2018-09-02T06:38:55.511Z,14.00
2018-09-02T06:41:23.154Z,14.10
2018-09-02T06:43:50.898Z,14.30
2018-09-02T06:46:18.968Z,14.40
2018-09-02T06:48:46.808Z,14.50
2018-09-02T06:51:14.523Z,14.50
2018-09-02T06:53:42.370Z,14.50
2018-09-02T06:56:10.038Z,14.50
2018-09-02T06:58:37.990Z,14.50
2018-09-02T07:01:06.167Z,14.50
2018-09-02T07:03:34.020Z,14.40
2018-09-02T07:06:01.688Z,14.40
2018-09-02T07:08:29.325Z,14.50
2018-09-02T07:10:56.935Z,14.40
2018-09-02T07:13:24.617Z,14.40
2018-09-02T07:15:52.297Z,14.30
2018-09-02T07:18:19.962Z,14.30
2018-09-02T07:20:47.633Z,14.20
2018-09-02T07:23:15.244Z,14.20
2018-09-02T07:25:42.859Z,14.20
2018-09-02T07:28:10.723Z,14.20
2018-09-02T07:30:38.361Z,14.20
2018-09-02T07:33:06.467Z,14.20
2018-09-02T07:35:34.699Z,14.30
2018-09-02T07:38:02.475Z,14.30
2018-09-02T07:40:30.326Z,14.30
2018-09-02T07:42:58.066Z,14.40
2018-09-02T07:45:25.758Z,14.40
2018-09-02T07:47:53.521Z,14.50
2018-09-02T07:50:21.567Z,14.50
2018-09-02T07:52:49.135Z,14.60
2018-09-02T07:55:16.919Z,14.60
2018-09-02T07:57:44.656Z,14.80
2018-09-02T08:00:12.571Z,14.90
2018-09-02T08:02:40.967Z,15.00
2018-09-02T08:05:08.926Z,15.10
2018-09-02T08:07:36.871Z,15.20
2018-09-02T08:10:06.763Z,15.30
2018-09-02T08:12:35.001Z,15.30
2018-09-02T08:15:02.638Z,15.30
2018-09-02T08:17:30.368Z,15.30
2018-09-02T08:19:58.254Z,15.30
2018-09-02T08:22:26.690Z,15.30
2018-09-02T08:24:54.683Z,15.20
2018-09-02T08:27:22.419Z,15.20
2018-09-02T08:29:50.219Z,15.20
2018-09-02T08:32:17.871Z,15.20
2018-09-02T08:34:45.612Z,15.20
2018-09-02T08:37:13.327Z,15.20
2018-09-02T08:39:41.200Z,15.30
2018-09-02T08:42:08.950Z,15.40
2018-09-02T08:44:36.728Z,15.50
2018-09-02T08:47:04.682Z,15.50
2018-09-02T08:49:32.406Z,15.50
2018-09-02T08:52:00.186Z,15.70
2018-09-02T08:54:28.036Z,15.70
2018-09-02T08:56:55.776Z,15.80
2018-09-02T08:59:23.486Z,16.00
2018-09-02T09:01:51.197Z,16.10
2018-09-02T09:04:19.540Z,16.10
2018-09-02T09:06:47.379Z,16.10
2018-09-02T09:09:16.189Z,16.00
2018-09-02T09:11:43.891Z,15.90
2018-09-02T09:14:11.785Z,15.90
2018-09-02T09:16:39.502Z,15.80
2018-09-02T09:19:07.196Z,15.90
2018-09-02T09:21:34.865Z,16.00
2018-09-02T09:24:02.573Z,16.00
2018-09-02T09:26:30.198Z,16.10
2018-09-02T09:28:57.853Z,16.30
2018-09-02T09:31:25.503Z,16.30
2018-09-02T09:33:53.168Z,16.30
2018-09-02T09:36:21.023Z,16.10
2018-09-02T09:38:48.668Z,15.90
2018-09-02T09:41:16.490Z,15.90
2018-09-02T09:43:44.679Z,15.90
2018-09-02T09:46:12.579Z,15.90
2018-09-02T09:48:40.249Z,15.90
2018-09-02T09:51:07.971Z,15.80
2018-09-02T09:53:35.714Z,15.60
2018-09-02T09:56:03.437Z,15.60
2018-09-02T09:58:31.292Z,15.80
2018-09-02T10:00:58.990Z,15.90
2018-09-02T10:03:26.742Z,15.80
2018-09-02T10:05:54.534Z,15.90
2018-09-02T10:08:22.388Z,16.10
2018-09-02T10:10:50.139Z,16.10
2018-09-02T10:13:17.860Z,16.20
2018-09-02T10:15:45.639Z,16.30
2018-09-02T10:18:13.524Z,16.60
2018-09-02T10:20:41.084Z,16.80
2018-09-02T10:23:09.078Z,17.00
2018-09-02T10:25:37.167Z,17.00
2018-09-02T10:28:04.979Z,17.10
2018-09-02T10:30:32.927Z,16.90
2018-09-02T10:33:01.099Z,16.80
2018-09-02T10:35:28.978Z,16.50
2018-09-02T10:37:56.626Z,16.40
2018-09-02T10:40:24.312Z,16.40
2018-09-02T10:42:52.014Z,16.40
2018-09-02T10:45:19.830Z,16.40
2018-09-02T10:47:47.656Z,16.50
2018-09-02T10:50:16.437Z,16.40
2018-09-02T10:52:44.227Z,16.50
2018-09-02T10:55:12.031Z,16.50
2018-09-02T10:57:39.999Z,16.50
2018-09-02T11:00:09.155Z,16.70
2018-09-02T11:02:37.148Z,16.80
2018-09-02T11:05:06.259Z,16.80
2018-09-02T11:07:34.137Z,16.80
2018-09-02T11:10:01.864Z,16.70
2018-09-02T11:12:29.654Z,16.60
2018-09-02T11:14:57.345Z,16.70
2018-09-02T11:17:24.979Z,16.70
2018-09-02T11:19:52.773Z,16.70
2018-09-02T11:22:20.442Z,16.80
2018-09-02T11:24:48.199Z,16.70
2018-09-02T11:27:15.855Z,16.60
2018-09-02T11:29:43.887Z,16.60
2018-09-02T11:32:11.772Z,16.50
2018-09-02T11:34:39.500Z,16.50
2018-09-02T11:37:07.172Z,16.40
2018-09-02T11:39:34.947Z,16.40
2018-09-02T11:42:02.741Z,16.40
2018-09-02T11:44:30.671Z,16.40
2018-09-02T11:46:58.792Z,16.30
2018-09-02T11:49:26.384Z,16.30
2018-09-02T11:51:54.167Z,16.30
2018-09-02T11:54:22.390Z,16.30
2018-09-02T11:56:50.586Z,16.30
2018-09-02T11:59:18.483Z,16.40
2018-09-02T12:01:46.224Z,16.30
2018-09-02T12:04:14.086Z,16.20
2018-09-02T12:06:41.714Z,16.30
2018-09-02T12:09:09.571Z,16.30
2018-09-02T12:11:37.742Z,16.20
2018-09-02T12:14:05.601Z,16.10
2018-09-02T12:16:33.393Z,16.10
2018-09-02T12:19:01.092Z,16.10
2018-09-02T12:21:28.908Z,16.10
2018-09-02T12:23:56.942Z,16.10
2018-09-02T12:26:24.707Z,16.10
2018-09-02T12:28:52.887Z,16.10
2018-09-02T12:31:20.893Z,16.00
2018-09-02T12:33:48.596Z,15.90
2018-09-02T12:36:16.346Z,15.90
2018-09-02T12:38:43.968Z,15.90
2018-09-02T12:41:11.678Z,15.90
2018-09-02T12:43:39.423Z,15.90
2018-09-02T12:46:07.091Z,15.90
2018-09-02T12:48:35.107Z,15.80
2018-09-02T12:51:02.825Z,15.80
2018-09-02T12:53:30.483Z,15.90
2018-09-02T12:55:58.339Z,16.00
2018-09-02T12:58:26.252Z,16.00
2018-09-02T13:00:53.923Z,16.10
2018-09-02T13:03:21.602Z,16.10
2018-09-02T13:05:49.315Z,16.20
2018-09-02T13:08:16.972Z,16.20
2018-09-02T13:10:44.705Z,16.20
2018-09-02T13:13:12.541Z,16.20
2018-09-02T13:15:40.204Z,16.20
2018-09-02T13:18:07.894Z,16.20
2018-09-02T13:20:35.605Z,16.20
2018-09-02T13:23:03.203Z,16.20
2018-09-02T13:25:30.957Z,16.20
2018-09-02T13:27:58.566Z,16.10
2018-09-02T13:30:26.271Z,16.10
2018-09-02T13:32:54.111Z,16.10
2018-09-02T13:35:21.763Z,16.00
2018-09-02T13:37:49.444Z,16.10
2018-09-02T13:40:17.143Z,16.10
2018-09-02T13:42:44.882Z,16.10
2018-09-02T13:45:12.754Z,16.10
2018-09-02T13:47:40.417Z,16.10
2018-09-02T13:50:08.361Z,16.10
2018-09-02T13:52:36.047Z,16.20
2018-09-02T13:55:04.929Z,16.20
2018-09-02T13:57:32.670Z,16.30
2018-09-02T14:00:00.293Z,16.30
2018-09-02T14:02:27.967Z,16.30
2018-09-02T14:04:55.792Z,16.30
2018-09-02T14:07:23.476Z,16.30
2018-09-02T14:09:51.144Z,16.30
2018-09-02T14:12:18.939Z,16.30
2018-09-02T14:14:46.989Z,16.30
2018-09-02T14:17:14.713Z,16.30
2018-09-02T14:19:42.617Z,16.30
2018-09-02T14:22:10.707Z,16.30
2018-09-02T14:24:38.335Z,16.30
2018-09-02T14:27:06.075Z,16.20
2018-09-02T14:29:33.752Z,16.20
2018-09-02T14:32:01.439Z,16.20
2018-09-02T14:34:29.244Z,16.20
2018-09-02T14:36:56.871Z,16.30
2018-09-02T14:39:24.647Z,16.30
2018-09-02T14:41:52.301Z,16.30
2018-09-02T14:44:19.951Z,16.30
2018-09-02T14:46:47.755Z,16.20
2018-09-02T14:49:15.404Z,16.30
2018-09-02T14:51:43.055Z,16.30
2018-09-02T14:54:10.760Z,16.30
2018-09-02T14:56:39.811Z,16.20
2018-09-02T14:59:07.455Z,16.20
2018-09-02T15:01:35.084Z,16.20
2018-09-02T15:04:02.789Z,16.30
2018-09-02T15:06:30.447Z,16.30
2018-09-02T15:08:58.084Z,16.20
2018-09-02T15:11:25.778Z,16.10
2018-09-02T15:13:53.491Z,16.00
2018-09-02T15:16:21.267Z,15.90
2018-09-02T15:18:48.931Z,15.80
2018-09-02T15:21:16.806Z,15.80
2018-09-02T15:23:44.312Z,15.80
2018-09-02T15:26:11.944Z,15.80
2018-09-02T15:28:39.710Z,15.90
2018-09-02T15:31:07.438Z,15.90
2018-09-02T15:33:35.091Z,15.70
2018-09-02T15:36:02.771Z,15.60
2018-09-02T15:38:30.476Z,15.50
2018-09-02T15:40:58.171Z,15.50
2018-09-02T15:43:25.959Z,15.50
2018-09-02T15:45:53.753Z,15.50
2018-09-02T15:48:21.475Z,15.50
2018-09-02T15:50:49.241Z,15.50
2018-09-02T15:53:16.944Z,15.50
2018-09-02T15:55:44.590Z,15.40
2018-09-02T15:58:12.266Z,15.50
2018-09-02T16:00:39.963Z,15.40
2018-09-02T16:03:07.606Z,15.40
2018-09-02T16:05:35.384Z,15.30
2018-09-02T16:08:03.038Z,15.30
2018-09-02T16:10:30.895Z,15.30
2018-09-02T16:12:58.805Z,15.40
2018-09-02T16:15:26.512Z,15.40
2018-09-02T16:17:54.319Z,15.50
2018-09-02T16:20:21.956Z,15.50
2018-09-02T16:22:49.747Z,15.50
2018-09-02T16:25:19.191Z,15.60
2018-09-02T16:27:46.827Z,15.60
2018-09-02T16:30:14.533Z,15.60
2018-09-02T16:32:42.288Z,15.60
2018-09-02T16:35:09.919Z,15.50
2018-09-02T16:37:37.927Z,15.50
2018-09-02T16:40:05.619Z,15.40
2018-09-02T16:42:33.355Z,15.40
2018-09-02T16:45:01.095Z,15.40
2018-09-02T16:47:29.814Z,15.30
2018-09-02T16:49:57.465Z,15.30
2018-09-02T16:52:25.119Z,15.30
2018-09-02T16:54:52.837Z,15.30
2018-09-02T16:57:21.671Z,15.30
2018-09-02T16:59:49.507Z,15.30
2018-09-02T17:02:17.274Z,15.30
2018-09-02T17:04:47.339Z,15.30
2018-09-02T17:07:16.391Z,15.30
2018-09-02T17:09:44.548Z,15.30
2018-09-02T17:12:12.590Z,15.30
2018-09-02T17:14:40.223Z,15.30
2018-09-02T17:17:08.091Z,15.30
2018-09-02T17:19:38.083Z,15.30
2018-09-02T17:22:05.979Z,15.20
2018-09-02T17:24:34.003Z,15.20
2018-09-02T17:27:01.703Z,15.20
2018-09-02T17:29:29.769Z,15.20
2018-09-02T17:31:59.034Z,15.30
2018-09-02T17:34:26.714Z,15.30
2018-09-02T17:36:54.397Z,15.30
2018-09-02T17:39:22.057Z,15.30
2018-09-02T17:41:49.807Z,15.20
2018-09-02T17:44:17.765Z,15.40
2018-09-02T17:46:45.421Z,15.20
2018-09-02T17:49:13.578Z,15.20
2018-09-02T17:51:41.292Z,15.20
2018-09-02T17:54:09.836Z,15.20
2018-09-02T17:56:37.717Z,15.20
2018-09-02T17:59:05.385Z,15.20
2018-09-02T18:01:33.101Z,15.20
2018-09-02T18:04:00.901Z,15.20
2018-09-02T18:06:29.080Z,15.20
2018-09-02T18:08:56.937Z,15.20
2018-09-02T18:11:24.675Z,15.20
2018-09-02T18:13:52.426Z,15.20
2018-09-02T18:16:20.254Z,15.10
2018-09-02T18:18:48.088Z,15.20
2018-09-02T18:21:15.728Z,15.10
2018-09-02T18:23:43.557Z,15.10
2018-09-02T18:26:11.357Z,15.10
2018-09-02T18:28:41.423Z,15.10
2018-09-02T18:31:09.077Z,15.10
2018-09-02T18:33:36.745Z,15.10
2018-09-02T18:36:04.537Z,15.10
2018-09-02T18:38:32.207Z,15.10
2018-09-02T18:41:00.162Z,15.10
2018-09-02T18:43:27.838Z,15.10
2018-09-02T18:45:55.739Z,15.10
2018-09-02T18:48:23.549Z,15.10
2018-09-02T18:50:51.598Z,15.10
2018-09-02T18:53:19.465Z,15.00
2018-09-02T18:55:47.171Z,15.00
2018-09-02T18:58:14.827Z,15.00
2018-09-02T19:00:42.682Z,15.00
2018-09-02T19:03:11.230Z,15.00
2018-09-02T19:05:38.795Z,15.00
2018-09-02T19:08:06.812Z,15.00
2018-09-02T19:10:34.736Z,15.00
2018-09-02T19:13:02.428Z,15.00
2018-09-02T19:15:30.058Z,14.90
2018-09-02T19:17:57.759Z,14.90
2018-09-02T19:20:25.427Z,14.90
2018-09-02T19:22:53.330Z,14.90
2018-09-02T19:25:21.214Z,14.90
2018-09-02T19:27:48.934Z,14.90
2018-09-02T19:30:16.824Z,14.90
2018-09-02T19:32:44.801Z,14.90
2018-09-02T19:35:13.038Z,14.90
2018-09-02T19:37:40.938Z,14.90
2018-09-02T19:40:08.911Z,14.90
2018-09-02T19:42:36.637Z,14.90
2018-09-02T19:45:04.637Z,14.80
2018-09-02T19:47:32.267Z,14.80
2018-09-02T19:50:00.147Z,14.80
2018-09-02T19:52:27.934Z,14.90
2018-09-02T19:54:55.579Z,14.90
2018-09-02T19:57:23.275Z,14.90
2018-09-02T19:59:51.203Z,14.90
2018-09-02T20:02:19.118Z,14.90
2018-09-02T20:04:46.822Z,14.90
2018-09-02T20:07:14.696Z,14.90
2018-09-02T20:09:42.359Z,14.90
2018-09-02T20:12:10.255Z,14.90
2018-09-02T20:14:38.081Z,14.90
2018-09-02T20:17:06.927Z,14.90
2018-09-02T20:19:35.018Z,14.90
2018-09-02T20:22:03.530Z,14.90
2018-09-02T20:24:31.339Z,14.80
2018-09-02T20:26:59.195Z,14.90
2018-09-02T20:29:26.859Z,14.90
2018-09-02T20:31:54.500Z,14.80
2018-09-02T20:34:22.437Z,14.90
2018-09-02T20:36:50.090Z,14.90
2018-09-02T20:39:17.879Z,14.90
2018-09-02T20:41:45.587Z,14.90
2018-09-02T20:44:13.455Z,15.10
2018-09-02T20:46:41.210Z,14.90
2018-09-02T20:51:12.643Z,14.90
2018-09-02T20:53:40.499Z,14.90
2018-09-02T20:56:08.250Z,14.90
2018-09-02T20:58:36.005Z,14.90
2018-09-02T21:01:04.407Z,14.90
2018-09-02T21:03:32.251Z,14.90
2018-09-02T21:06:00.147Z,14.90
2018-09-02T21:08:28.174Z,14.90
2018-09-02T21:10:55.807Z,14.90
2018-09-02T21:13:23.491Z,14.90
2018-09-02T21:15:51.230Z,14.90
2018-09-02T21:18:19.110Z,14.90
2018-09-02T21:20:46.841Z,14.90
2018-09-02T21:23:14.588Z,14.90
2018-09-02T21:25:42.383Z,14.90
2018-09-02T21:28:10.506Z,14.90
2018-09-02T21:30:38.244Z,14.90
2018-09-02T21:33:07.134Z,14.90
2018-09-02T21:35:34.905Z,14.90
2018-09-02T21:38:02.680Z,14.90
2018-09-02T21:40:30.433Z,14.90
2018-09-02T21:42:58.571Z,14.90
2018-09-02T21:45:26.283Z,14.90
2018-09-02T21:47:54.139Z,15.00
2018-09-02T21:50:22.092Z,14.90
2018-09-02T21:52:49.850Z,14.90
2018-09-02T21:55:17.629Z,14.90
2018-09-02T21:57:45.363Z,14.90
2018-09-02T22:00:15.303Z,15.00
2018-09-02T22:02:43.109Z,15.00
2018-09-02T22:05:12.776Z,15.00
2018-09-02T22:07:41.851Z,15.00
2018-09-02T22:10:10.280Z,14.90
2018-09-02T22:12:38.227Z,14.90
2018-09-02T22:15:07.378Z,14.90
2018-09-02T22:17:35.338Z,14.90
2018-09-02T22:20:03.419Z,14.90
2018-09-02T22:22:31.282Z,14.90
2018-09-02T22:24:59.153Z,14.90
2018-09-02T22:27:26.903Z,14.90
2018-09-02T22:29:55.782Z,14.90
2018-09-02T22:32:23.500Z,14.90
2018-09-02T22:34:51.231Z,14.90
2018-09-02T22:37:19.120Z,14.90
2018-09-02T22:39:47.208Z,14.90
2018-09-02T22:42:15.001Z,14.90
2018-09-02T22:44:42.802Z,14.90
2018-09-02T22:47:10.842Z,14.90
2018-09-02T22:49:38.804Z,14.90
2018-09-02T22:52:06.928Z,15.00
2018-09-02T22:54:34.755Z,15.00
2018-09-02T22:57:02.823Z,15.00
2018-09-02T22:59:30.842Z,15.00
2018-09-02T23:02:00.723Z,15.00
2018-09-02T23:04:28.776Z,15.00
2018-09-02T23:06:56.643Z,15.00
2018-09-02T23:09:24.533Z,15.00
2018-09-02T23:11:52.459Z,15.00
2018-09-02T23:14:20.206Z,15.00
2018-09-02T23:16:48.077Z,15.00
2018-09-02T23:19:15.914Z,15.00
2018-09-02T23:21:43.660Z,15.00
2018-09-02T23:24:11.431Z,15.00
2018-09-02T23:26:39.470Z,14.90
2018-09-02T23:29:07.589Z,14.90
2018-09-02T23:31:35.343Z,14.90
2018-09-02T23:34:03.310Z,14.90
2018-09-02T23:36:31.109Z,14.80
2018-09-02T23:38:58.896Z,14.80
2018-09-02T23:41:27.014Z,14.80
2018-09-02T23:43:54.758Z,14.80
2018-09-02T23:46:22.739Z,14.80
2018-09-02T23:48:50.504Z,14.80
2018-09-02T23:51:18.228Z,14.80
2018-09-02T23:53:46.023Z,14.90
2018-09-02T23:56:13.837Z,14.90
2018-09-02T23:58:41.600Z,14.90
